Flight Track Log - Related Links

Times and Time Zones

All times are in EDT time to prevent confusion due to time zone crossing. See the N665LF flight status page for this flight to view local times or setup timezone preferences in your user account.

Time Position Orientation Groundspeed Altitude Reporting Facility
EDT Latitude Longitude Course Direction KTS MPH feet Rate Location/Type
Tue 02:46:12 PM 40.8667 -74.0500 346° North 121 139 1,400  Level New York TRACON
Tue 02:47:12 PM 40.9000 -74.0833 323° Northwest 150 173 2,500 1,041 Climbing New York TRACON
Tue 02:48:13 PM 40.9167 -74.1333 294° West 174 200 3,500 942 Climbing New York TRACON
Tue 02:49:13 PM 40.9500 -74.1667 323° Northwest 168 193 4,400 850 Climbing New York TRACON
Tue 02:50:13 PM 41.0000 -74.2000 333° Northwest 170 196 5,200 750 Climbing New York TRACON
Tue 02:51:00 PM 41.0812 -74.1049 346° North  Level FlightAware Approximate
Tue 02:51:13 PM 41.0500 -74.2000 360° North 171 197 5,900  Level New York TRACON
Tue 02:52:13 PM 41.0833 -74.1833 21° North 180 207 6,000 50 Climbing New York TRACON
Tue 02:53:13 PM 41.1333 -74.1500 27° Northeast 190 219 6,000 150 Level New York TRACON
Tue 02:54:13 PM 41.1500 -74.0833 72° East 180 207 6,300 524 Climbing New York TRACON
Tue 02:55:19 PM 41.1667 -74.0167 72° East 158 182 7,100 650 Climbing New York TRACON
Tue 02:56:13 PM 41.1833 -73.9667 66° East 158 182 7,600 526 Climbing New York TRACON
Tue 02:57:13 PM 41.2000 -73.9167 66° East 164 189 8,100 397 Climbing New York TRACON
Tue 02:58:14 PM 41.2000 -73.8667 90° East 169 194 8,400 331 Climbing New York TRACON
Tue 02:59:20 PM 41.2167 -73.8000 72° East 169 194 8,800 286 Climbing New York TRACON
Tue 03:00:20 PM 41.2333 -73.7333 72° East 183 211 9,000 100 Climbing New York TRACON
Tue 03:01:20 PM 41.2500 -73.6667 72° East 187 215 9,000  Level New York TRACON
Tue 03:02:20 PM 41.2833 -73.6000 56° Northeast 188 216 9,000  Level New York TRACON
Tue 03:03:14 PM 41.3000 -73.5500 66° East 189 217 9,000  Level New York TRACON
Tue 03:04:14 PM 41.3167 -73.4833 72° East 188 216 9,000 28 Level New York TRACON
Tue 03:06:49 PM 41.3694 -73.3253 66° East 188 216 9,100 29 Climbing Boston Center
Tue 03:07:38 PM 41.3867 -73.2756 65° Northeast 187 215 9,100  Level Boston Center
Tue 03:08:45 PM 41.4119 -73.2094 63° Northeast 185 213 9,100  Level Boston Center
Tue 03:09:45 PM 41.4333 -73.1461 66° East 182 209 9,100  Level Boston Center
Tue 03:10:46 PM 41.4544 -73.0856 65° Northeast 180 207 9,100  Level Boston Center
Tue 03:11:47 PM 41.4756 -73.0219 66° East 180 207 9,100  Level Boston Center
Tue 03:12:47 PM 41.4967 -72.9611 65° Northeast 179 206 9,100  Level Boston Center
Tue 03:13:48 PM 41.5200 -72.9003 63° Northeast 180 207 9,100  Level Boston Center
Tue 03:14:49 PM 41.5389 -72.8422 66° East 177 204 9,100  Level Boston Center
Tue 03:15:49 PM 41.5600 -72.7842 64° Northeast 177 204 9,100  Level Boston Center
Tue 03:16:44 PM 41.5811 -72.7286 63° Northeast 176 203 9,100 -52 Level Boston Center
Tue 03:17:45 PM 41.5978 -72.6706 69° East 176 203 9,000  Descending Boston Center
Tue 03:18:45 PM 41.6208 -72.6067 64° Northeast 176 203 9,100 50 Climbing Boston Center
Tue 03:19:46 PM 41.6397 -72.5483 67° East 176 203 9,100  Level Boston Center
Tue 03:20:47 PM 41.6792 -72.5039 40° Northeast 180 207 9,100  Level Boston Center
Tue 03:21:48 PM 41.7189 -72.4653 36° Northeast 181 208 9,100  Level Boston Center
Tue 03:23:07 PM 41.7669 -72.4094 41° Northeast 179 206 9,100  Level Boston Center
Tue 03:23:55 PM 41.8003 -72.3761 37° Northeast 178 205 9,100 -55 Level Boston Center
Tue 03:24:56 PM 41.8397 -72.3314 40° Northeast 178 205 9,000 -295 Descending Boston Center
Tue 03:25:57 PM 41.8792 -72.2867 40° Northeast 181 208 8,500 -492 Descending Boston Center
Tue 03:26:58 PM 41.9167 -72.2447 40° Northeast 186 214 8,000 -545 Descending Boston Center
Tue 03:27:58 PM 41.9583 -72.1944 42° Northeast 188 216 7,400 -545 Descending Boston Center
Tue 03:28:59 PM 42.0000 -72.1497 39° Northeast 187 215 6,900 -492 Descending Boston Center
Tue 03:30:00 PM 42.0394 -72.1047 40° Northeast 185 213 6,400 -492 Descending Boston Center
Tue 03:31:01 PM 42.0789 -72.0625 38° Northeast 182 209 5,900 -492 Descending Boston Center
Tue 03:32:02 PM 42.1161 -72.0147 44° Northeast 181 208 5,400 -406 Descending Boston Center
Tue 03:33:14 PM 42.1639 -71.9639 38° Northeast 181 208 5,000 -94 Descending Boston Center
Tue 03:35:14 PM 42.2333 -71.8833 41° Northeast 171 197 5,100 33 Climbing KA90
Tue 03:36:14 PM 42.2833 -71.8333 36° Northeast 171 197 5,100  Level KA90
Tue 03:37:14 PM 42.3167 -71.8000 36° Northeast 171 197 5,100  Level KA90
Tue 03:38:14 PM 42.3500 -71.7500 48° Northeast 171 197 5,100  Level KA90
Tue 03:39:14 PM 42.3833 -71.7167 36° Northeast 170 196 5,100 -50 Level KA90
Tue 03:40:14 PM 42.4167 -71.6667 48° Northeast 149 171 5,000 -400 Descending KA90
Tue 03:41:14 PM 42.4333 -71.6333 56° Northeast 139 160 4,300 -700 Descending KA90
Tue 03:42:14 PM 42.4667 -71.6000 36° Northeast 133 153 3,600 -700 Descending KA90
Tue 03:43:14 PM 42.4833 -71.5500 66° East 142 163 2,900 -700 Descending KA90
Tue 03:44:14 PM 42.4833 -71.5167 90° East 138 159 2,200 -400 Descending KA90
Tue 03:45:14 PM 42.4833 -71.4667 90° East 130 150 2,100 -50 Descending KA90
Tue 03:46:14 PM 42.4833 -71.4167 90° East 110 127 2,100 -300 Level KA90
Tue 03:47:14 PM 42.4833 -71.3833 90° East 106 122 1,500 -600 Descending KA90
Tue 03:48:14 PM 42.4833 -71.3333 90° East 108 124 900 -600 Descending KA90
Tue 03:50:00 PM 42.4667 -71.2833 135° Southeast  Level FlightAware Approximate
Tue 03:57:00 PM 42.4699 -71.2890 135° Southeast  Level Estimated

Login

Don't have an account? Register now (free) for customized features, flight alerts, and more!